KCXO/CXO METAR and TAF weather

Enter ICAO airport designator
Station Type Date Time Source
KCXO METAR 2020/04/06 09:53 UTC NOAA

KCXO 060953Z AUTO 04004KT 7SM CLR 17/16 A2998 RMK AO2 SLP150 T01670161


Station Type Date Time Source
KCXO Decoded METAR 2020/04/06 09:53 UTC NOAA

LONE STAR EXECUTIVE AIRPORT, TX, United States (KCXO) 30-21N 95-25W 75M
Apr 06, 2020 - 05:53 AM EDT / 2020.04.06 0953 UTC
Wind: from the NE (040 degrees) at 5 MPH (4 KT):0
Visibility: 7 mile(s):0
Sky conditions: clear
Temperature: 62.1 F (16.7 C)
Dew Point: 61.0 F (16.1 C)
Relative Humidity: 96%
Pressure (altimeter): 29.98 in. Hg (1015 hPa)
ob: KCXO 060953Z AUTO 04004KT 7SM CLR 17/16 A2998 RMK AO2 SLP150 T01670161
cycle: 10

Station Type Date Time Source
KCXO TAF 2020/04/06 09:09 UTC NOAA

TAF
AMD KCXO 060907Z 0609/0706 00000KT 6SM BR SCT014
FM061100 00000KT 5SM BR BKN015 OVC020
FM061600 14006KT P6SM BKN015 OVC035
FM062100 15007KT P6SM VCSH OVC025
FM070200 12003KT 6SM BR OVC015

Example: see airport list